Time;durP1;ratioP1;P1;durP2;ratioP2;P2;SDS_P1;SDS_P2;PMS_P1;PMS_P2;Temp;Humidity;BMP_temperature;BMP_pressure;BME280_temperature;BME280_humidity;BME280_pressure;Samples;Min_cycle;Max_cycle;Signal;HPM_P1;HPM_P2
2023/05/08 00:00:57;;;;;;;2.38;1.50;;;;;;;13.13;100.00;92636.31;5032242;28;20037;-77
2023/05/08 00:03:23;;;;;;;3.53;1.58;;;;;;;12.95;100.00;92644.34;5032376;28;20487;-76
2023/05/08 00:05:49;;;;;;;3.80;1.80;;;;;;;12.81;100.00;92644.38;5030951;28;20039;-77
2023/05/08 00:08:14;;;;;;;3.72;1.95;;;;;;;12.75;100.00;92640.31;5030820;28;20064;-77
2023/05/08 00:10:40;;;;;;;3.28;1.83;;;;;;;12.69;100.00;92648.28;5032935;28;20450;-76
2023/05/08 00:13:05;;;;;;;3.25;1.80;;;;;;;12.61;100.00;92642.94;5031594;28;20541;-77
2023/05/08 00:15:31;;;;;;;2.78;1.50;;;;;;;12.55;100.00;92638.91;5031154;28;20045;-77
2023/05/08 00:17:57;;;;;;;2.40;1.38;;;;;;;12.45;100.00;92627.53;5042043;28;20581;-76
2023/05/08 00:20:23;;;;;;;3.78;1.70;;;;;;;12.45;100.00;92632.78;5032362;28;20407;-77
2023/05/08 00:22:48;;;;;;;2.90;1.50;;;;;;;12.39;100.00;92638.44;5032258;28;20042;-77
2023/05/08 00:25:15;;;;;;;2.25;1.50;;;;;;;12.40;100.00;92634.72;5032300;28;20044;-76
2023/05/08 00:27:40;;;;;;;2.63;1.52;;;;;;;12.27;100.00;92636.28;5029182;28;20041;-76
2023/05/08 00:30:07;;;;;;;2.22;1.40;;;;;;;12.20;100.00;92636.66;5030945;28;20052;-77
2023/05/08 00:32:32;;;;;;;2.60;1.60;;;;;;;12.17;100.00;92632.00;5031399;28;20053;-76
2023/05/08 00:34:58;;;;;;;2.85;1.48;;;;;;;12.11;100.00;92627.13;5022726;28;20454;-77
2023/05/08 00:37:24;;;;;;;1.98;1.38;;;;;;;12.03;100.00;92628.59;5025268;28;20197;-76
2023/05/08 00:39:50;;;;;;;1.90;1.33;;;;;;;12.06;100.00;92625.38;5029369;28;20036;-77
2023/05/08 00:42:15;;;;;;;3.03;1.60;;;;;;;12.01;100.00;92625.50;5031125;28;20042;-77
2023/05/08 00:44:41;;;;;;;1.92;1.50;;;;;;;11.97;100.00;92625.28;5030692;28;20042;-77
2023/05/08 00:47:07;;;;;;;2.25;1.30;;;;;;;11.96;100.00;92620.34;5029049;28;20037;-76
2023/05/08 00:49:34;;;;;;;1.90;1.30;;;;;;;11.92;100.00;92619.38;5031527;28;20087;-76
2023/05/08 00:52:02;;;;;;;2.35;1.60;;;;;;;11.94;100.00;92620.63;5031243;28;20025;-77
2023/05/08 00:54:29;;;;;;;3.20;1.70;;;;;;;11.95;100.00;92626.66;5026124;28;20128;-76
2023/05/08 00:56:54;;;;;;;2.25;1.38;;;;;;;11.94;100.00;92625.09;5030001;28;20445;-76
2023/05/08 00:59:21;;;;;;;2.03;1.40;;;;;;;11.97;100.00;92624.50;5030919;28;20037;-77
2023/05/08 01:01:49;;;;;;;2.90;1.52;;;;;;;11.92;100.00;92619.38;5029817;28;20123;-77
2023/05/08 01:04:20;;;;;;;2.55;1.60;;;;;;;11.91;100.00;92617.81;5031134;28;20178;-76
2023/05/08 01:06:46;;;;;;;2.08;1.52;;;;;;;11.90;100.00;92622.28;5030253;28;20033;-77
2023/05/08 01:09:11;;;;;;;3.50;1.75;;;;;;;11.92;100.00;92619.38;5031335;28;20385;-77
2023/05/08 01:12:14;;;;;;;5.55;1.80;;;;;;;11.98;100.00;92624.22;5030258;28;20045;-77
2023/05/08 01:15:26;;;;;;;2.58;1.55;;;;;;;11.97;100.00;92621.88;5029745;28;20025;-76
2023/05/08 01:18:15;;;;;;;5.60;1.60;;;;;;;11.93;100.00;92632.19;5019274;28;20406;-77
2023/05/08 01:20:52;;;;;;;2.22;1.60;;;;;;;11.83;100.00;92622.63;5042272;28;20029;-77
2023/05/08 01:23:51;;;;;;;3.92;1.80;;;;;;;11.86;100.00;92632.53;5030965;28;20507;-76
2023/05/08 01:26:46;;;;;;;4.88;1.50;;;;;;;11.84;100.00;92634.69;5029762;28;20046;-77
2023/05/08 01:29:37;;;;;;;2.03;1.52;;;;;;;11.80;100.00;92623.22;5029134;28;20396;-76
2023/05/08 01:32:15;;;;;;;2.90;1.60;;;;;;;11.78;100.00;92630.59;5040256;28;20029;-76
2023/05/08 01:34:56;;;;;;;2.70;1.60;;;;;;;11.85;100.00;92640.72;5029000;28;20079;-76
2023/05/08 01:37:29;;;;;;;2.10;1.40;;;;;;;11.79;100.00;92642.63;5005929;28;20479;-76
2023/05/08 01:40:04;;;;;;;2.50;1.50;;;;;;;11.78;100.00;92640.31;5038250;28;20132;-77
2023/05/08 01:42:48;;;;;;;1.92;1.30;;;;;;;11.80;100.00;92643.44;5030691;28;20029;-76
2023/05/08 01:45:29;;;;;;;2.75;1.40;;;;;;;11.79;100.00;92647.09;5029418;28;20042;-77
2023/05/08 01:48:10;;;;;;;3.08;1.55;;;;;;;11.96;100.00;92643.97;5029177;28;20533;-76
2023/05/08 01:50:45;;;;;;;2.00;1.40;;;;;;;11.90;100.00;92642.50;5028836;28;20033;-76
2023/05/08 01:53:23;;;;;;;4.03;1.60;;;;;;;11.81;100.00;92637.09;5029157;28;20422;-77
2023/05/08 01:55:52;;;;;;;2.28;1.40;;;;;;;11.73;100.00;92638.56;5025435;28;20049;-77
2023/05/08 01:58:19;;;;;;;3.00;1.50;;;;;;;11.71;100.00;92635.44;5045606;28;20124;-76
2023/05/08 02:00:46;;;;;;;3.80;1.50;;;;;;;11.69;100.00;92642.03;5029066;28;20029;-76
2023/05/08 02:03:14;;;;;;;2.58;1.50;;;;;;;11.68;100.00;92638.63;5012761;28;20459;-77
2023/05/08 02:05:41;;;;;;;2.33;1.52;;;;;;;11.65;100.00;92642.59;5028467;28;20156;-76
2023/05/08 02:08:10;;;;;;;3.25;1.42;;;;;;;11.60;100.00;92641.94;5030739;28;20112;-76
2023/05/08 02:10:37;;;;;;;3.15;1.60;;;;;;;11.55;100.00;92642.78;5029297;28;20029;-77
2023/05/08 02:13:04;;;;;;;3.33;1.50;;;;;;;11.52;100.00;92634.72;5029042;28;20384;-76
2023/05/08 02:15:34;;;;;;;1.92;1.50;;;;;;;11.58;100.00;92657.94;5025726;28;20133;-77
2023/05/08 02:18:02;;;;;;;2.22;1.45;;;;;;;11.51;100.00;92649.66;5029223;28;20124;-77
2023/05/08 02:20:30;;;;;;;2.05;1.40;;;;;;;11.53;100.00;92654.59;5029586;28;20428;-77
2023/05/08 02:22:57;;;;;;;4.97;1.40;;;;;;;11.53;100.00;92655.41;5029265;28;20033;-76
2023/05/08 02:25:24;;;;;;;2.05;1.45;;;;;;;11.54;100.00;92653.56;5027949;28;20144;-76
2023/05/08 02:27:53;;;;;;;1.77;1.30;;;;;;;11.58;100.00;92657.16;5030689;28;20372;-77
2023/05/08 02:30:23;;;;;;;3.05;1.50;;;;;;;11.61;100.00;92657.34;5029770;28;20396;-76
2023/05/08 02:32:50;;;;;;;3.17;1.50;;;;;;;11.65;100.00;92662.81;5011842;28;20042;-77
2023/05/08 02:35:18;;;;;;;2.45;1.50;;;;;;;11.66;100.00;92664.34;5019280;28;20032;-77
2023/05/08 02:37:54;;;;;;;5.00;1.60;;;;;;;11.63;100.00;92667.56;4996708;28;20034;-76
2023/05/08 02:40:22;;;;;;;2.45;1.70;;;;;;;11.64;100.00;92669.91;5030757;28;20038;-77
2023/05/08 02:42:48;;;;;;;2.90;1.80;;;;;;;11.61;100.00;92664.44;5029213;28;20499;-76
2023/05/08 02:45:14;;;;;;;2.53;1.70;;;;;;;11.68;100.00;92667.47;5028455;28;20037;-77
2023/05/08 02:48:06;;;;;;;5.45;2.08;;;;;;;11.67;100.00;92666.69;5011723;28;20495;-76
2023/05/08 02:50:39;;;;;;;3.35;1.90;;;;;;;11.73;100.00;92669.22;5030289;28;20037;-77
2023/05/08 02:53:11;;;;;;;2.90;1.67;;;;;;;11.72;100.00;92673.69;5042895;28;20132;-76
2023/05/08 02:56:05;;;;;;;3.00;1.70;;;;;;;11.72;100.00;92672.94;5029068;28;20033;-77
2023/05/08 02:58:41;;;;;;;3.72;2.08;;;;;;;11.72;100.00;92675.56;5040956;28;20041;-77
2023/05/08 03:01:30;;;;;;;3.58;1.98;;;;;;;11.72;100.00;92676.31;5026652;28;20038;-77
2023/05/08 03:04:09;;;;;;;3.13;1.92;;;;;;;11.71;100.00;92677.41;5029874;28;20036;-77
2023/05/08 03:06:41;;;;;;;5.05;1.98;;;;;;;11.69;100.00;92673.50;5028948;28;20071;-76
2023/05/08 03:09:16;;;;;;;3.67;1.70;;;;;;;11.65;100.00;92678.53;5044746;28;20033;-77
2023/05/08 03:11:46;;;;;;;4.38;1.90;;;;;;;11.61;100.00;92672.31;5022274;28;20098;-77
2023/05/08 03:14:15;;;;;;;3.58;2.00;;;;;;;11.55;100.00;92673.44;5028685;28;20039;-77
2023/05/08 03:16:43;;;;;;;4.57;1.88;;;;;;;11.51;100.00;92675.13;5008133;28;20036;-77
2023/05/08 03:19:18;;;;;;;3.63;1.80;;;;;;;11.49;100.00;92677.25;5021555;28;20404;-77
2023/05/08 03:21:46;;;;;;;3.00;1.67;;;;;;;11.50;100.00;92684.03;5027571;28;20032;-77
2023/05/08 03:24:15;;;;;;;3.45;1.77;;;;;;;11.49;100.00;92683.25;5029751;28;20045;-77
2023/05/08 03:26:42;;;;;;;4.57;1.70;;;;;;;11.59;100.00;92690.16;5029183;28;20403;-76
2023/05/08 03:29:09;;;;;;;2.67;1.70;;;;;;;11.52;100.00;92690.53;5029797;28;20041;-77
2023/05/08 03:31:36;;;;;;;4.63;1.70;;;;;;;11.48;100.00;92686.94;5028986;28;20120;-76
2023/05/08 03:34:03;;;;;;;4.55;1.90;;;;;;;11.45;100.00;92701.38;5027898;28;20164;-76
2023/05/08 03:36:29;;;;;;;5.47;2.03;;;;;;;11.40;100.00;92690.97;5023864;28;20525;-76
2023/05/08 03:38:55;;;;;;;4.38;1.80;;;;;;;11.39;100.00;92704.38;5028109;28;20044;-76
2023/05/08 03:41:24;;;;;;;2.60;1.70;;;;;;;11.36;100.00;92703.09;5032061;28;20045;-76
2023/05/08 03:43:50;;;;;;;5.47;1.90;;;;;;;11.33;100.00;92698.44;5031107;28;20030;-77
2023/05/08 03:46:16;;;;;;;2.20;1.52;;;;;;;11.34;100.00;92704.44;5032182;28;20338;-76
2023/05/08 03:48:44;;;;;;;2.47;1.55;;;;;;;11.34;100.00;92702.59;5032434;28;20403;-76
2023/05/08 03:51:11;;;;;;;5.00;1.40;;;;;;;11.34;100.00;92699.22;5031067;28;20403;-77
2023/05/08 03:53:37;;;;;;;3.17;1.30;;;;;;;11.35;100.00;92704.19;5031251;28;20068;-77
2023/05/08 03:56:03;;;;;;;3.45;1.50;;;;;;;11.34;100.00;92704.44;5014408;28;20116;-76
2023/05/08 03:58:40;;;;;;;5.80;1.60;;;;;;;11.34;100.00;92710.47;5033546;28;20128;-77
2023/05/08 04:01:12;;;;;;;3.30;1.40;;;;;;;11.34;100.00;92710.47;5031130;28;20513;-77
2023/05/08 04:04:02;;;;;;;2.42;1.60;;;;;;;11.38;100.00;92706.22;5030910;28;20071;-77
2023/05/08 04:06:36;;;;;;;5.40;1.50;;;;;;;11.31;100.00;92703.19;5031830;28;20034;-76
2023/05/08 04:09:19;;;;;;;1.95;1.25;;;;;;;11.26;100.00;92705.88;5031319;28;20043;-77
2023/05/08 04:11:53;;;;;;;3.83;1.50;;;;;;;11.22;100.00;92712.75;5030007;28;20040;-76
2023/05/08 04:14:24;;;;;;;2.80;1.70;;;;;;;11.21;100.00;92711.19;5029475;28;20056;-77
2023/05/08 04:16:55;;;;;;;3.20;1.60;;;;;;;11.20;100.00;92717.50;5031144;28;20038;-76
2023/05/08 04:19:27;;;;;;;2.00;1.40;;;;;;;11.14;100.00;92716.78;5011667;28;20567;-77
2023/05/08 04:21:58;;;;;;;2.10;1.50;;;;;;;11.02;100.00;92704.09;5020707;28;20040;-76
2023/05/08 04:24:27;;;;;;;2.75;1.50;;;;;;;11.09;100.00;92718.69;5027996;28;20026;-76
2023/05/08 04:26:53;;;;;;;3.20;1.40;;;;;;;11.06;100.00;92711.41;5030853;28;20041;-77
2023/05/08 04:29:20;;;;;;;2.83;1.40;;;;;;;11.06;100.00;92720.03;5029876;28;20037;-76
2023/05/08 04:31:49;;;;;;;4.47;1.60;;;;;;;11.07;100.00;92721.59;5034252;28;20033;-79
2023/05/08 04:34:17;;;;;;;2.70;1.60;;;;;;;11.16;100.00;92721.72;5037016;28;20030;-80
2023/05/08 04:36:43;;;;;;;5.00;1.48;;;;;;;11.19;100.00;92721.16;5048811;28;20100;-79
2023/05/08 04:39:09;;;;;;;5.68;1.70;;;;;;;11.14;100.00;92721.25;5040700;28;20427;-79
2023/05/08 04:41:35;;;;;;;4.43;1.40;;;;;;;11.13;100.00;92723.09;5033198;28;20029;-79
2023/05/08 04:44:02;;;;;;;6.18;2.03;;;;;;;11.14;100.00;92726.47;5038620;28;20033;-78
2023/05/08 04:46:28;;;;;;;2.42;1.60;;;;;;;11.15;100.00;92723.59;5036571;28;20046;-79
2023/05/08 04:48:54;;;;;;;2.95;1.60;;;;;;;11.20;100.00;92731.38;5015650;28;20044;-76
2023/05/08 04:51:20;;;;;;;7.03;1.83;;;;;;;11.22;100.00;92729.25;5022034;28;20029;-76
2023/05/08 04:53:45;;;;;;;4.22;1.70;;;;;;;11.24;100.00;92729.75;5026296;28;20036;-76
2023/05/08 04:56:11;;;;;;;2.75;1.70;;;;;;;11.23;100.00;92730.00;5013054;28;20041;-76
2023/05/08 04:58:37;;;;;;;2.45;1.52;;;;;;;11.22;100.00;92729.25;5020586;28;20442;-76
2023/05/08 05:01:04;;;;;;;2.28;1.50;;;;;;;11.29;100.00;92726.28;5034835;28;20041;-76
2023/05/08 05:03:31;;;;;;;2.08;1.50;;;;;;;11.31;100.00;92724.16;5009222;28;20037;-76
2023/05/08 05:06:01;;;;;;;3.95;1.60;;;;;;;11.37;100.00;92728.25;5026804;28;20521;-75
2023/05/08 05:08:27;;;;;;;2.63;1.60;;;;;;;11.43;100.00;92727.09;5037003;28;20029;-76
2023/05/08 05:10:54;;;;;;;6.90;1.77;;;;;;;11.46;100.00;92738.88;5026287;28;20026;-77
2023/05/08 05:13:19;;;;;;;5.20;1.55;;;;;;;11.44;100.00;92726.06;5029106;28;20052;-77
2023/05/08 05:15:45;;;;;;;2.78;1.50;;;;;;;11.50;100.00;92737.22;5031523;28;20088;-77
2023/05/08 05:18:12;;;;;;;2.90;1.30;;;;;;;11.55;100.00;92736.38;5027992;28;20095;-77
2023/05/08 05:20:38;;;;;;;3.55;1.60;;;;;;;11.59;100.00;92732.13;5011752;28;20033;-77
2023/05/08 05:23:03;;;;;;;3.08;1.60;;;;;;;11.66;100.00;92737.78;5013837;28;20097;-77
2023/05/08 05:25:29;;;;;;;3.63;1.40;;;;;;;11.72;100.00;92744.50;5019656;28;20089;-76
2023/05/08 05:27:56;;;;;;;2.65;1.70;;;;;;;11.77;100.00;92736.53;5026597;28;20121;-76
2023/05/08 05:30:21;;;;;;;4.70;2.10;;;;;;;11.83;100.00;92739.88;4995875;28;20392;-75
2023/05/08 05:32:47;;;;;;;2.95;1.60;;;;;;;11.90;100.00;92742.16;5026926;28;20040;-76
2023/05/08 05:35:13;;;;;;;3.30;1.60;;;;;;;11.94;100.00;92733.44;5028250;28;20505;-76
2023/05/08 05:37:40;;;;;;;2.70;1.70;;;;;;;11.98;100.00;92733.63;5011028;28;20037;-76
2023/05/08 05:40:07;;;;;;;2.25;1.50;;;;;;;12.04;100.00;92742.97;5025485;28;20510;-76
2023/05/08 05:42:34;;;;;;;2.58;1.50;;;;;;;12.08;100.00;92741.34;5026435;28;20033;-76
2023/05/08 05:45:00;;;;;;;3.00;1.45;;;;;;;12.12;100.00;92736.28;5029265;28;20052;-76
2023/05/08 05:47:27;;;;;;;6.47;1.48;;;;;;;12.16;100.00;92734.63;5012536;28;20044;-76
2023/05/08 05:49:53;;;;;;;2.20;1.40;;;;;;;12.18;100.00;92735.91;5029619;28;20049;-76
2023/05/08 05:52:19;;;;;;;2.72;1.55;;;;;;;12.21;100.00;92739.81;5028076;28;20037;-78
2023/05/08 05:54:45;;;;;;;2.38;1.45;;;;;;;12.11;100.00;92732.88;5027748;28;20029;-76
2023/05/08 05:57:12;;;;;;;2.70;1.60;;;;;;;12.19;100.00;92740.09;5025269;28;20067;-74
2023/05/08 05:59:39;;;;;;;2.30;1.50;;;;;;;12.26;100.00;92729.97;5024091;28;20034;-76
2023/05/08 06:02:13;;;;;;;2.92;1.75;;;;;;;12.33;100.00;92731.47;5027661;28;20414;-77
2023/05/08 06:04:38;;;;;;;2.30;1.60;;;;;;;12.43;100.00;92733.91;5005334;28;20041;-76
2023/05/08 06:07:05;;;;;;;3.63;1.70;;;;;;;12.53;100.00;92727.69;5028675;28;20044;-76
2023/05/08 06:09:31;;;;;;;3.35;1.70;;;;;;;12.87;100.00;92735.91;5026883;28;20037;-76
2023/05/08 06:11:56;;;;;;;3.45;1.60;;;;;;;13.22;100.00;92733.66;5028002;28;20541;-76
2023/05/08 06:14:22;;;;;;;2.47;1.50;;;;;;;13.38;100.00;92731.50;5027286;28;20103;-77
2023/05/08 06:16:48;;;;;;;3.08;1.40;;;;;;;13.46;100.00;92738.66;5026093;28;20419;-76
2023/05/08 06:19:14;;;;;;;2.42;1.50;;;;;;;13.59;100.00;92746.81;5037306;28;20037;-76
2023/05/08 06:21:41;;;;;;;2.40;1.50;;;;;;;13.57;100.00;92746.31;5027799;28;20029;-76
2023/05/08 06:24:07;;;;;;;3.28;1.60;;;;;;;13.51;100.00;92745.69;5033626;28;20542;-76
2023/05/08 06:26:32;;;;;;;4.25;1.40;;;;;;;13.40;100.00;92750.38;5027145;28;20085;-76
2023/05/08 06:28:58;;;;;;;2.92;1.50;;;;;;;13.30;100.00;92748.72;5024912;28;20057;-76
2023/05/08 06:31:23;;;;;;;2.38;1.60;;;;;;;13.35;100.00;92750.47;5022655;28;20037;-77
2023/05/08 06:33:49;;;;;;;2.88;1.58;;;;;;;13.45;100.00;92750.25;5029938;28;20053;-76
2023/05/08 06:36:14;;;;;;;2.20;1.50;;;;;;;13.61;100.00;92747.28;5027259;28;20036;-76
2023/05/08 06:38:40;;;;;;;2.67;1.40;;;;;;;13.72;100.00;92745.97;5025548;28;20029;-76
2023/05/08 06:41:06;;;;;;;3.25;1.48;;;;;;;13.80;100.00;92736.59;5026454;28;20454;-76
2023/05/08 06:43:31;;;;;;;2.30;1.50;;;;;;;13.92;100.00;92756.03;5027413;28;20044;-76
2023/05/08 06:45:57;;;;;;;3.50;1.40;;;;;;;13.95;100.00;92747.53;5030000;28;20402;-76
2023/05/08 06:48:27;;;;;;;2.53;1.58;;;;;;;14.09;100.00;92741.41;5028070;28;20034;-76
2023/05/08 06:50:53;;;;;;;6.53;2.50;;;;;;;14.05;100.00;92749.16;5028934;28;20506;-76
2023/05/08 06:53:19;;;;;;;3.92;1.88;;;;;;;14.09;100.00;92751.94;5029636;28;20033;-76
2023/05/08 06:55:44;;;;;;;5.25;1.90;;;;;;;14.13;100.00;92747.63;5030256;28;20040;-76
2023/05/08 06:58:10;;;;;;;4.28;1.75;;;;;;;14.08;100.00;92742.50;5028578;28;20527;-76
2023/05/08 07:00:35;;;;;;;4.57;2.20;;;;;;;14.12;100.00;92746.09;5029825;28;20045;-76
2023/05/08 07:03:01;;;;;;;5.50;2.20;;;;;;;14.00;100.00;92751.88;5029576;28;20041;-76
2023/05/08 07:05:27;;;;;;;4.05;2.08;;;;;;;13.99;100.00;92750.34;5043116;28;20126;-76
2023/05/08 07:07:53;;;;;;;3.63;2.20;;;;;;;13.89;100.00;92756.63;5029380;28;20037;-78
2023/05/08 07:10:21;;;;;;;5.93;2.55;;;;;;;13.79;100.00;92756.88;5028679;28;20124;-77
2023/05/08 07:12:47;;;;;;;5.45;2.25;;;;;;;13.75;100.00;92750.63;5028209;28;20606;-77
2023/05/08 07:15:13;;;;;;;3.55;2.22;;;;;;;13.72;100.00;92749.38;5028466;28;20069;-77
2023/05/08 07:17:40;;;;;;;4.88;2.90;;;;;;;13.59;100.00;92750.22;5032317;28;20118;-77
2023/05/08 07:20:06;;;;;;;5.28;2.42;;;;;;;13.94;100.00;92759.13;5032424;28;20505;-77
2023/05/08 07:22:32;;;;;;;4.40;1.90;;;;;;;13.90;100.00;92758.19;5049565;28;20057;-77
2023/05/08 07:24:58;;;;;;;2.97;1.92;;;;;;;14.02;100.00;92759.50;5033921;28;20037;-76
2023/05/08 07:27:23;;;;;;;4.70;1.90;;;;;;;14.08;100.00;92753.81;5032274;28;20531;-76
2023/05/08 07:29:49;;;;;;;7.78;2.00;;;;;;;14.10;100.00;92766.69;5028664;28;20112;-78
2023/05/08 07:32:15;;;;;;;3.03;1.60;;;;;;;14.08;100.00;92763.56;5028804;28;20082;-77
2023/05/08 07:34:42;;;;;;;2.78;1.60;;;;;;;14.18;100.00;92762.53;5027488;28;20108;-77
2023/05/08 07:37:07;;;;;;;5.55;1.85;;;;;;;14.36;100.00;92762.34;5028607;28;20115;-77
2023/05/08 07:39:33;;;;;;;3.45;1.70;;;;;;;14.52;100.00;92765.34;5025677;28;20083;-77
2023/05/08 07:41:59;;;;;;;4.45;1.70;;;;;;;14.60;100.00;92774.41;5025549;28;20029;-76
2023/05/08 07:44:26;;;;;;;2.08;1.45;;;;;;;14.84;100.00;92774.03;5030736;28;20042;-76
2023/05/08 07:46:51;;;;;;;2.92;1.45;;;;;;;14.95;100.00;92775.31;5024022;28;20514;-76
2023/05/08 07:49:17;;;;;;;2.45;1.60;;;;;;;15.01;100.00;92768.03;5020443;28;20051;-77
2023/05/08 07:51:42;;;;;;;4.82;2.25;;;;;;;15.30;100.00;92772.75;5040455;28;20057;-77
2023/05/08 07:54:08;;;;;;;5.35;2.50;;;;;;;15.33;100.00;92769.50;5005944;28;20041;-78
2023/05/08 07:56:33;;;;;;;4.53;2.55;;;;;;;15.26;100.00;92771.03;5029033;28;20453;-78
2023/05/08 07:58:59;;;;;;;4.40;2.47;;;;;;;15.34;100.00;92771.03;5027879;28;20038;-77
2023/05/08 08:01:25;;;;;;;4.25;2.03;;;;;;;15.41;100.00;92771.38;5025623;28;20041;-77
2023/05/08 08:03:50;;;;;;;4.80;2.42;;;;;;;15.30;100.00;92772.75;5024989;28;20033;-77
2023/05/08 08:06:17;;;;;;;5.30;2.72;;;;;;;15.27;100.00;92775.22;5025404;28;20034;-77
2023/05/08 08:08:42;;;;;;;2.97;1.98;;;;;;;15.06;100.00;92773.16;5022940;28;20071;-77
2023/05/08 08:11:08;;;;;;;3.80;1.80;;;;;;;15.31;100.00;92778.78;5038086;28;20047;-78
2023/05/08 08:13:34;;;;;;;3.75;1.95;;;;;;;15.27;100.00;92772.59;5024504;28;20119;-78
2023/05/08 08:16:02;;;;;;;6.45;2.38;;;;;;;15.60;100.00;92784.28;5022887;28;20517;-77
2023/05/08 08:18:28;;;;;;;3.50;2.10;;;;;;;15.61;100.00;92782.41;5028110;28;20113;-78
2023/05/08 08:20:54;;;;;;;6.30;2.55;;;;;;;15.57;100.00;92781.47;5003576;28;20046;-77
2023/05/08 08:23:19;;;;;;;2.30;1.45;;;;;;;15.68;100.00;92774.81;5022782;28;20623;-78
2023/05/08 08:25:45;;;;;;;3.60;1.75;;;;;;;15.96;100.00;92774.50;5020221;28;20043;-78
2023/05/08 08:28:11;;;;;;;4.35;1.67;;;;;;;16.13;100.00;92779.00;5015620;28;20057;-78
2023/05/08 08:30:36;;;;;;;2.28;1.50;;;;;;;16.25;100.00;92776.50;5034111;28;20021;-78
2023/05/08 08:33:02;;;;;;;3.42;1.40;;;;;;;16.37;100.00;92774.00;5032537;28;20044;-78
2023/05/08 08:35:29;;;;;;;2.63;1.60;;;;;;;16.45;100.00;92772.41;5033166;28;20029;-78
2023/05/08 08:37:55;;;;;;;3.30;1.45;;;;;;;16.59;100.00;92774.84;5033547;28;20432;-78
2023/05/08 08:40:21;;;;;;;3.38;1.30;;;;;;;16.68;100.00;92783.53;5033409;28;20033;-79
2023/05/08 08:42:47;;;;;;;2.05;1.30;;;;;;;16.76;100.00;92777.44;5033837;28;20045;-78
2023/05/08 08:45:13;;;;;;;2.97;1.50;;;;;;;16.73;100.00;92770.16;5027813;28;20274;-78
2023/05/08 08:47:41;;;;;;;3.95;1.70;;;;;;;17.03;100.00;92768.34;5023920;28;21108;-78
2023/05/08 08:50:08;;;;;;;3.45;1.80;;;;;;;17.00;100.00;92773.47;5027881;28;20442;-77
2023/05/08 08:52:53;;;;;;;2.90;1.90;;;;;;;16.91;100.00;92778.03;5027996;28;20056;-78
2023/05/08 08:55:22;;;;;;;4.10;2.20;;;;;;;16.60;100.00;92776.41;5036382;28;20029;-77
2023/05/08 08:58:02;;;;;;;3.50;1.98;;;;;;;16.70;100.00;92775.28;5038176;28;20052;-76
2023/05/08 09:00:32;;;;;;;3.50;2.05;;;;;;;16.23;100.00;92773.38;5023396;28;20045;-77
2023/05/08 09:02:58;;;;;;;3.72;1.95;;;;;;;16.19;100.00;92777.75;5018446;28;20052;-77
2023/05/08 09:05:25;;;;;;;2.97;1.80;;;;;;;16.25;100.00;92765.94;5027249;28;20021;-77
2023/05/08 09:07:53;;;;;;;3.40;2.00;;;;;;;16.35;100.00;92776.16;5021930;28;20120;-77
2023/05/08 09:10:19;;;;;;;2.60;1.67;;;;;;;16.27;100.00;92784.13;5031233;28;20103;-77
2023/05/08 09:12:46;;;;;;;1.92;1.17;;;;;;;16.29;100.00;92774.78;5030344;28;20032;-77
2023/05/08 09:15:12;;;;;;;5.13;1.70;;;;;;;16.33;100.00;92781.00;5031439;28;20072;-78
2023/05/08 09:17:38;;;;;;;2.28;1.38;;;;;;;16.19;100.00;92778.53;5027917;28;20463;-77
2023/05/08 09:20:04;;;;;;;3.13;1.60;;;;;;;16.27;100.00;92790.16;5007390;28;20300;-78
2023/05/08 09:22:31;;;;;;;4.20;1.73;;;;;;;16.16;100.00;92783.66;5021217;28;20152;-78
2023/05/08 09:24:58;;;;;;;2.75;1.67;;;;;;;16.34;100.00;92787.81;5030684;28;20036;-78
2023/05/08 09:27:26;;;;;;;2.50;1.50;;;;;;;16.24;100.00;92786.28;5038858;28;20068;-78
2023/05/08 09:30:05;;;;;;;5.07;1.40;;;;;;;16.14;100.00;92786.59;5023577;28;20079;-77
2023/05/08 09:32:33;;;;;;;1.70;1.13;;;;;;;16.23;100.00;92795.31;5037823;28;20045;-77
2023/05/08 09:34:59;;;;;;;3.13;1.50;;;;;;;16.16;100.00;92795.00;5024562;28;20044;-77
2023/05/08 09:37:26;;;;;;;3.67;1.50;;;;;;;16.22;100.00;92791.09;5027449;28;20041;-78
2023/05/08 09:39:52;;;;;;;5.88;2.25;;;;;;;16.28;100.00;92789.09;5031006;28;20051;-77
2023/05/08 09:42:18;;;;;;;4.00;1.60;;;;;;;16.49;100.00;92791.06;5030745;28;20112;-76
2023/05/08 09:44:52;;;;;;;4.60;2.08;;;;;;;16.68;100.00;92790.69;5022808;28;20574;-77
2023/05/08 09:47:20;;;;;;;4.22;2.22;;;;;;;16.63;100.00;92797.69;5024421;28;20052;-77
2023/05/08 09:49:57;;;;;;;4.97;2.00;;;;;;;16.53;100.00;92797.28;5019809;28;20087;-77
2023/05/08 09:52:23;;;;;;;2.72;1.80;;;;;;;16.61;100.00;92793.81;5020217;28;20037;-78
2023/05/08 09:55:03;;;;;;;3.92;1.88;;;;;;;16.59;100.00;92794.13;5024556;28;20033;-77
2023/05/08 09:57:31;;;;;;;3.67;1.88;;;;;;;16.34;100.00;92808.19;5024530;28;20056;-77
2023/05/08 10:00:07;;;;;;;3.78;2.00;;;;;;;16.55;100.00;92795.88;5029524;28;20041;-77
2023/05/08 10:02:34;;;;;;;3.35;1.70;;;;;;;16.55;100.00;92800.34;5030902;28;20041;-77
2023/05/08 10:05:00;;;;;;;2.90;1.80;;;;;;;16.68;100.00;92796.75;5030130;28;20395;-77
2023/05/08 10:07:31;;;;;;;3.10;1.65;;;;;;;16.76;100.00;92801.25;5029777;28;20026;-78
2023/05/08 10:10:06;;;;;;;3.58;1.60;;;;;;;17.04;100.00;92801.63;5029531;28;20060;-78
2023/05/08 10:12:32;;;;;;;3.92;1.60;;;;;;;17.05;100.00;92813.00;5030287;28;20621;-78
2023/05/08 10:14:58;;;;;;;4.15;1.95;;;;;;;16.98;100.00;92818.00;5031469;28;20025;-79
2023/05/08 10:18:04;;;;;;;5.05;1.85;;;;;;;17.42;100.00;92808.72;5031740;28;20064;-78
2023/05/08 10:20:31;;;;;;;3.13;1.95;;;;;;;17.48;100.00;92809.34;5004304;28;20056;-78
2023/05/08 10:22:57;;;;;;;3.55;1.98;;;;;;;17.25;100.00;92806.97;5029878;28;20060;-77
2023/05/08 10:25:24;;;;;;;2.78;1.88;;;;;;;17.10;100.00;92809.38;5029810;28;20487;-78
2023/05/08 10:27:58;;;;;;;3.47;1.92;;;;;;;16.62;100.00;92816.53;5030889;28;20040;-77
2023/05/08 10:30:25;;;;;;;3.40;1.77;;;;;;;16.77;100.00;92816.00;5029326;28;20143;-77
2023/05/08 10:32:54;;;;;;;4.45;1.98;;;;;;;16.75;100.00;92810.28;5030133;28;20030;-77
2023/05/08 10:35:20;;;;;;;4.13;1.90;;;;;;;16.78;100.00;92808.84;5031790;28;20029;-78
2023/05/08 10:37:47;;;;;;;2.97;1.90;;;;;;;16.71;100.00;92819.91;5027451;28;20029;-77
2023/05/08 10:40:19;;;;;;;3.15;2.00;;;;;;;16.67;100.00;92803.13;5015053;28;20045;-78
2023/05/08 10:42:45;;;;;;;;;;;;;;;16.75;100.00;92804.97;5028033;28;20132;-77
2023/05/08 10:45:11;;;;;;;3.35;1.92;;;;;;;16.79;100.00;92800.63;5030062;28;20451;-78
2023/05/08 10:47:52;;;;;;;4.07;2.15;;;;;;;16.90;100.00;92797.63;5029640;28;20077;-78
2023/05/08 10:50:38;;;;;;;4.10;1.90;;;;;;;17.23;100.00;92792.53;5031633;28;20071;-78
2023/05/08 10:53:26;;;;;;;4.68;2.35;;;;;;;17.18;100.00;92796.13;5032963;28;20451;-77
2023/05/08 10:55:54;;;;;;;3.95;2.30;;;;;;;17.07;100.00;92800.22;5024955;28;20590;-78
2023/05/08 10:58:22;;;;;;;4.10;2.63;;;;;;;16.86;100.00;92789.56;5032391;28;20475;-78
2023/05/08 11:00:51;;;;;;;3.97;2.45;;;;;;;16.85;100.00;92788.03;5034258;28;20025;-78
2023/05/08 11:03:22;;;;;;;3.83;2.30;;;;;;;16.76;100.00;92792.53;5034237;28;20104;-78
2023/05/08 11:05:51;;;;;;;4.03;2.33;;;;;;;16.62;100.00;92788.22;5033455;28;20567;-78
2023/05/08 11:08:24;;;;;;;4.47;2.42;;;;;;;16.55;100.00;92781.84;5032792;28;20036;-78
2023/05/08 11:11:15;;;;;;;5.45;2.50;;;;;;;16.51;100.00;92794.16;5033565;28;20047;-77
2023/05/08 11:13:49;;;;;;;4.07;2.60;;;;;;;16.44;100.00;92800.72;5025801;28;20124;-78
2023/05/08 11:16:14;;;;;;;4.88;2.58;;;;;;;16.54;100.00;92789.00;5033468;28;20041;-78
2023/05/08 11:19:17;;;;;;;4.40;2.60;;;;;;;16.59;100.00;92782.78;5033051;28;20034;-78
2023/05/08 11:22:22;;;;;;;3.20;2.20;;;;;;;16.73;100.00;92783.38;5033467;28;20029;-78
2023/05/08 11:24:56;;;;;;;5.25;2.92;;;;;;;16.72;100.00;92791.63;4993579;28;20030;-78
2023/05/08 11:27:38;;;;;;;3.67;2.63;;;;;;;16.78;100.00;92783.19;4995152;28;20065;-78
2023/05/08 11:30:22;;;;;;;3.90;2.75;;;;;;;16.65;100.00;92778.88;5009999;28;20045;-78
2023/05/08 11:33:04;;;;;;;3.85;2.60;;;;;;;16.78;100.00;92785.06;4993239;28;20041;-78
2023/05/08 11:35:40;;;;;;;4.70;2.90;;;;;;;16.57;100.00;92782.31;4993845;28;20050;-78